»·PEaware :: N857LM KPDX-KPWT

N857LM :: KPDX-KPWT

FLIGHT INFORMATION

Flight Status: Arrived
Operator: Privately registered:
United States
More flights under this callsign
Pilot: Bill H. (17578)
Aircraft: BEECH AIRCRAFT BARON
(BE58)
More flights by this aircraft type
Origin: KPDX Portland Intl
United States
Destination: KPWT Bremerton Natl
United States
More flights between these airports :: More routes between these airports
Route: +
File this flight plan on PilotEdge
Remarks:
Altitude:
(Current/Filed)
0ft
Speed:
(Current/Filed)
180kts
Departed: 26-Jul-20 04:05 PM
Arrived: 26-Jul-20 04:49 PM
Distance/Time
Traveled:
114nm/0:44
Distance/Time
To Go:
Arrived

Flight Plot

Page will automatically refresh every two minutes.


Map Options




Map Legend


Flown Route
Filed Route
Departure Airport
Arrival Airport
Navaid (VOR, NDB)
Fix

Horizontal Profiles

Position Reports

Time Latitude Longitude Heading Altitude Ground
Speed
26-Jul-20 15:57 45.585249 -122.578693 298 25ft 0kts
26-Jul-20 15:58 45.586033 -122.578738 354 25ft 4kts
26-Jul-20 15:59 45.588405 -122.582472 298 25ft 23kts
26-Jul-20 16:00 45.591835 -122.591296 298 25ft 26kts
26-Jul-20 16:01 45.594023 -122.596134 50 25ft 0kts
26-Jul-20 16:02 45.594023 -122.596134 50 25ft 0kts
26-Jul-20 16:03 45.594023 -122.596134 50 25ft 0kts
26-Jul-20 16:04 45.589716 -122.582842 117 183ft 96kts
26-Jul-20 16:05 45.573975 -122.549218 117 1504ft 106kts
26-Jul-20 16:06 45.575545 -122.513009 21 2469ft 128kts
26-Jul-20 16:07 45.610585 -122.531050 335 3391ft 142kts
26-Jul-20 16:08 45.646733 -122.555853 327 4201ft 151kts
26-Jul-20 16:09 45.681483 -122.588040 334 5099ft 148kts
26-Jul-20 16:10 45.718888 -122.591751 7 6049ft 141kts
26-Jul-20 16:11 45.759549 -122.594190 4 6851ft 150kts
26-Jul-20 16:12 45.801634 -122.597988 4 7636ft 153kts
26-Jul-20 16:13 45.845309 -122.602107 3 8138ft 160kts
26-Jul-20 16:14 45.890078 -122.606398 3 8510ft 168kts
26-Jul-20 16:15 45.940465 -122.611129 2 8511ft 192kts
26-Jul-20 16:16 45.995020 -122.616458 1 8507ft 199kts
26-Jul-20 16:17 46.050391 -122.621838 1 8507ft 200kts
26-Jul-20 16:18 46.105848 -122.627213 1 8516ft 199kts
26-Jul-20 16:19 46.161031 -122.632531 1 8544ft 198kts
26-Jul-20 16:20 46.216183 -122.637956 1 8574ft 198kts
26-Jul-20 16:21 46.270794 -122.643239 1 8590ft 197kts
26-Jul-20 16:22 46.325896 -122.648583 1 8485ft 193kts
26-Jul-20 16:23 46.377483 -122.653718 1 8490ft 185kts
26-Jul-20 16:24 46.430243 -122.658824 1 8490ft 192kts
26-Jul-20 16:25 46.483281 -122.664051 1 8488ft 188kts
26-Jul-20 16:26 46.535158 -122.669182 1 8488ft 185kts
26-Jul-20 16:27 46.586759 -122.674188 1 8490ft 189kts
26-Jul-20 16:28 46.639759 -122.679456 0 8491ft 193kts
26-Jul-20 16:29 46.693277 -122.684746 0 8490ft 193kts
26-Jul-20 16:30 46.747018 -122.690042 0 8494ft 193kts
26-Jul-20 16:31 46.800704 -122.695400 0 8506ft 193kts
26-Jul-20 16:32 46.854151 -122.700714 0 8518ft 192kts
26-Jul-20 16:33 46.907652 -122.706060 0 8517ft 193kts
26-Jul-20 16:34 46.964026 -122.711597 359 7941ft 210kts
26-Jul-20 16:35 47.021486 -122.717436 359 7284ft 204kts
26-Jul-20 16:36 47.078068 -122.723083 359 6484ft 204kts
26-Jul-20 16:37 47.130915 -122.728399 359 5731ft 203kts
26-Jul-20 16:38 47.187317 -122.734053 358 4929ft 203kts
26-Jul-20 16:39 47.242893 -122.739697 358 4121ft 197kts
26-Jul-20 16:40 47.296062 -122.745072 358 3309ft 186kts
26-Jul-20 16:41 47.345580 -122.750086 357 2496ft 171kts
26-Jul-20 16:42 47.391847 -122.754800 359 1695ft 160kts
26-Jul-20 16:44 47.431688 -122.759076 359 1275ft 123kts
26-Jul-20 16:45 47.463272 -122.745864 19 1331ft 121kts
26-Jul-20 16:46 47.461121 -122.778982 219 1113ft 131kts
26-Jul-20 16:47 47.457914 -122.808058 49 985ft 99kts
26-Jul-20 16:48 47.476331 -122.778192 34 671ft 98kts
26-Jul-20 16:49 47.492832 -122.762348 32 444ft 27kts
26-Jul-20 16:50 47.493459 -122.763707 212 444ft 15kts
26-Jul-20 16:51 47.492201 -122.766005 326 444ft 9kts
26-Jul-20 16:52 47.491984 -122.766550 212 444ft 0kts

Navigation Log

Ident Type
Flight plan parsing failed, navigation log unavailable